createdAt,value
2023-05-09T00:00:51.037Z,92.29
2023-05-09T00:02:55.612Z,91.76
2023-05-09T00:04:57.589Z,92.90
2023-05-09T00:06:59.577Z,92.03
2023-05-09T00:09:01.561Z,92.39
2023-05-09T00:11:05.733Z,91.53
2023-05-09T00:13:08.149Z,90.98
2023-05-09T00:15:10.862Z,91.46
2023-05-09T00:17:14.771Z,92.24
2023-05-09T00:19:16.758Z,91.84
2023-05-09T00:21:18.712Z,91.32
2023-05-09T00:23:22.011Z,91.85
2023-05-09T00:25:23.968Z,92.07
2023-05-09T00:27:28.945Z,91.43
2023-05-09T00:29:35.774Z,91.13
2023-05-09T00:31:37.763Z,91.33
2023-05-09T00:33:39.983Z,91.27
2023-05-09T00:35:41.713Z,91.50
2023-05-09T00:37:43.566Z,91.49
2023-05-09T00:39:46.395Z,91.90
2023-05-09T00:41:48.454Z,91.97
2023-05-09T00:43:50.549Z,91.22
2023-05-09T00:45:55.029Z,90.96
2023-05-09T00:47:57.772Z,91.00
2023-05-09T00:49:59.928Z,91.25
2023-05-09T00:52:02.925Z,91.39
2023-05-09T00:54:07.628Z,91.56
2023-05-09T00:56:12.450Z,91.59
2023-05-09T00:58:14.543Z,91.14
2023-05-09T01:00:18.865Z,91.20
2023-05-09T01:02:21.312Z,92.31
2023-05-09T01:04:23.978Z,91.20
2023-05-09T01:06:39.977Z,91.05
2023-05-09T01:08:59.797Z,91.24
2023-05-09T01:11:10.426Z,90.64
2023-05-09T01:13:28.439Z,90.25
2023-05-09T01:15:39.599Z,90.15
2023-05-09T01:17:50.368Z,89.85
2023-05-09T01:19:56.839Z,90.44
2023-05-09T01:22:02.387Z,90.25
2023-05-09T01:24:08.557Z,91.01
2023-05-09T01:26:19.304Z,90.45
2023-05-09T01:28:33.567Z,90.32
2023-05-09T01:30:37.916Z,90.49
2023-05-09T01:32:42.907Z,91.13
2023-05-09T01:34:47.907Z,90.20
2023-05-09T01:36:51.866Z,90.80
2023-05-09T01:38:54.997Z,90.98
2023-05-09T01:40:59.841Z,91.13
2023-05-09T01:43:07.325Z,91.42
2023-05-09T01:45:11.556Z,91.05
2023-05-09T01:47:16.791Z,90.72
2023-05-09T01:49:20.659Z,91.57
2023-05-09T01:51:24.362Z,90.71
2023-05-09T01:53:32.910Z,90.89
2023-05-09T01:55:36.862Z,90.34
2023-05-09T01:57:42.207Z,90.41
2023-05-09T01:59:46.225Z,90.21
2023-05-09T02:01:49.300Z,90.13
2023-05-09T02:03:53.650Z,90.08
2023-05-09T02:05:57.158Z,90.26
2023-05-09T02:08:00.456Z,89.80
2023-05-09T02:10:03.368Z,89.64
2023-05-09T02:12:05.644Z,90.29
2023-05-09T02:14:08.096Z,89.71
2023-05-09T02:16:10.495Z,90.43
2023-05-09T02:18:13.068Z,89.58
2023-05-09T02:20:15.452Z,90.73
2023-05-09T02:22:17.595Z,89.99
2023-05-09T02:24:19.497Z,90.23
2023-05-09T02:26:22.866Z,89.80
2023-05-09T02:28:27.658Z,89.96
2023-05-09T02:30:36.472Z,90.36
2023-05-09T02:32:40.872Z,90.64
2023-05-09T02:34:44.064Z,89.93
2023-05-09T02:36:49.753Z,89.58
2023-05-09T02:38:51.985Z,89.65
2023-05-09T02:40:53.892Z,89.40
2023-05-09T02:42:56.614Z,89.42
2023-05-09T02:44:58.472Z,89.29
2023-05-09T02:47:01.903Z,89.13
2023-05-09T02:49:03.728Z,89.04
2023-05-09T02:51:05.765Z,89.37
2023-05-09T02:53:07.537Z,89.01
2023-05-09T02:55:10.057Z,88.58
2023-05-09T02:57:12.095Z,88.54
2023-05-09T02:59:14.061Z,88.05
2023-05-09T03:01:15.862Z,87.98
2023-05-09T03:03:18.306Z,88.25
2023-05-09T03:05:20.708Z,87.67
2023-05-09T03:07:24.864Z,87.56
2023-05-09T03:09:31.796Z,87.77
2023-05-09T03:11:34.042Z,87.63
2023-05-09T03:13:40.151Z,87.16
2023-05-09T03:15:42.146Z,86.55
2023-05-09T03:17:44.114Z,85.47
2023-05-09T03:19:46.204Z,85.37
2023-05-09T03:21:48.060Z,85.35
2023-05-09T03:23:49.938Z,85.00
2023-05-09T03:25:51.713Z,85.35
2023-05-09T03:27:53.550Z,85.20
2023-05-09T03:29:55.608Z,85.30
2023-05-09T03:31:57.578Z,84.75
2023-05-09T03:33:59.435Z,83.81
2023-05-09T03:36:01.440Z,84.00
2023-05-09T03:38:03.395Z,82.81
2023-05-09T03:40:06.870Z,82.92
2023-05-09T03:42:08.637Z,82.86
2023-05-09T03:44:12.578Z,83.38
2023-05-09T03:46:14.520Z,82.74
2023-05-09T03:48:19.034Z,83.00
2023-05-09T03:50:20.954Z,83.24
2023-05-09T03:52:22.852Z,83.51
2023-05-09T03:54:27.236Z,83.25
2023-05-09T03:56:29.201Z,83.61
2023-05-09T03:58:31.458Z,82.99
2023-05-09T04:00:33.447Z,83.01
2023-05-09T04:02:35.262Z,83.31
2023-05-09T04:04:37.155Z,82.97
2023-05-09T04:06:39.843Z,83.06
2023-05-09T04:08:42.218Z,83.57
2023-05-09T04:10:44.682Z,83.48
2023-05-09T04:12:46.459Z,83.23
2023-05-09T04:14:49.009Z,82.92
2023-05-09T04:16:51.100Z,82.89
2023-05-09T04:18:52.860Z,82.22
2023-05-09T04:20:54.603Z,82.71
2023-05-09T04:22:56.509Z,82.44
2023-05-09T04:24:58.244Z,82.86
2023-05-09T04:27:00.007Z,82.40
2023-05-09T04:29:01.852Z,82.94
2023-05-09T04:31:03.616Z,83.07
2023-05-09T04:33:05.708Z,82.90
2023-05-09T04:35:08.445Z,83.30
2023-05-09T04:37:11.170Z,83.55
2023-05-09T04:39:12.948Z,83.01
2023-05-09T04:41:14.729Z,83.14
2023-05-09T04:43:16.412Z,82.94
2023-05-09T04:45:18.163Z,83.66
2023-05-09T04:47:19.836Z,83.67
2023-05-09T04:49:21.587Z,83.43
2023-05-09T04:51:23.402Z,83.15
2023-05-09T04:53:25.094Z,83.61
2023-05-09T04:55:30.819Z,83.40
2023-05-09T04:57:37.578Z,83.69
2023-05-09T04:59:39.369Z,83.78
2023-05-09T05:01:41.424Z,84.03
2023-05-09T05:03:43.202Z,83.83
2023-05-09T05:05:45.047Z,83.89
2023-05-09T05:07:47.042Z,83.15
2023-05-09T05:09:48.756Z,83.36
2023-05-09T05:12:00.777Z,83.04
2023-05-09T05:14:04.316Z,83.15
2023-05-09T05:16:06.126Z,83.12
2023-05-09T05:18:07.849Z,83.09
2023-05-09T05:20:12.329Z,82.64
2023-05-09T05:22:14.005Z,82.34
2023-05-09T05:24:15.797Z,82.61
2023-05-09T05:26:17.503Z,82.85
2023-05-09T05:28:19.280Z,82.61
2023-05-09T05:30:21.151Z,82.83
2023-05-09T05:32:25.935Z,82.82
2023-05-09T05:34:27.698Z,82.38
2023-05-09T05:36:29.580Z,82.26
2023-05-09T05:38:31.349Z,82.41
2023-05-09T05:40:33.088Z,82.24
2023-05-09T05:42:35.053Z,81.85
2023-05-09T05:44:36.816Z,81.88
2023-05-09T05:46:38.605Z,81.57
2023-05-09T05:48:40.345Z,82.27
2023-05-09T05:50:42.030Z,82.34
2023-05-09T05:52:43.729Z,82.11
2023-05-09T05:54:45.549Z,82.08
2023-05-09T05:56:47.401Z,82.04
2023-05-09T05:58:49.482Z,82.07
2023-05-09T06:00:52.828Z,82.27
2023-05-09T06:02:57.154Z,82.03
2023-05-09T06:04:58.965Z,82.70
2023-05-09T06:07:00.769Z,82.15
2023-05-09T06:09:02.570Z,82.16
2023-05-09T06:11:06.008Z,82.34
2023-05-09T06:13:07.771Z,82.16
2023-05-09T06:15:10.039Z,81.70
2023-05-09T06:17:11.903Z,82.15
2023-05-09T06:19:13.729Z,81.45
2023-05-09T06:21:15.514Z,81.10
2023-05-09T06:23:22.272Z,81.54
2023-05-09T06:25:24.110Z,81.66
2023-05-09T06:27:30.748Z,81.50
2023-05-09T06:29:37.641Z,81.91
2023-05-09T06:31:41.190Z,81.22
2023-05-09T06:33:43.144Z,80.94
2023-05-09T06:35:45.181Z,81.35
2023-05-09T06:37:48.660Z,80.77
2023-05-09T06:39:51.113Z,80.50
2023-05-09T06:41:52.920Z,81.26
2023-05-09T06:43:54.695Z,80.61
2023-05-09T06:45:56.704Z,80.62
2023-05-09T06:47:58.638Z,81.07
2023-05-09T06:50:00.474Z,81.50
2023-05-09T06:52:02.486Z,81.19
2023-05-09T06:54:06.668Z,80.47
2023-05-09T06:56:08.518Z,79.64
2023-05-09T06:58:11.260Z,79.85
2023-05-09T07:00:15.033Z,80.14
2023-05-09T07:02:16.895Z,80.22
2023-05-09T07:04:18.814Z,80.57
2023-05-09T07:06:20.886Z,80.30
2023-05-09T07:08:22.746Z,80.22
2023-05-09T07:10:24.662Z,80.05
2023-05-09T07:12:31.733Z,79.95
2023-05-09T07:14:33.533Z,80.06
2023-05-09T07:16:37.436Z,80.33
2023-05-09T07:18:40.204Z,81.00
2023-05-09T07:20:42.214Z,80.74
2023-05-09T07:22:44.790Z,79.93
2023-05-09T07:24:46.785Z,80.44
2023-05-09T07:26:48.711Z,77.86
2023-05-09T07:28:50.814Z,78.04
2023-05-09T07:30:52.714Z,77.96
2023-05-09T07:32:54.749Z,77.49
2023-05-09T07:34:59.104Z,77.70
2023-05-09T07:37:01.138Z,77.88
2023-05-09T07:39:04.517Z,77.84
2023-05-09T07:41:06.879Z,77.49
2023-05-09T07:43:08.882Z,77.85
2023-05-09T07:45:11.282Z,77.33
2023-05-09T07:47:13.148Z,77.73
2023-05-09T07:49:15.124Z,78.18
2023-05-09T07:51:17.123Z,76.88
2023-05-09T07:53:19.462Z,76.63
2023-05-09T07:55:21.517Z,76.38
2023-05-09T07:57:23.495Z,76.14
2023-05-09T07:59:25.462Z,76.05
2023-05-09T08:01:32.850Z,75.63
2023-05-09T08:03:34.919Z,75.07
2023-05-09T08:05:39.951Z,74.03
2023-05-09T08:07:42.112Z,73.66
2023-05-09T08:09:44.357Z,73.04
2023-05-09T08:11:46.208Z,72.15
2023-05-09T08:13:48.421Z,72.21
2023-05-09T08:15:50.552Z,72.44
2023-05-09T08:17:52.557Z,72.36
2023-05-09T08:19:54.865Z,71.92
2023-05-09T08:21:56.800Z,72.17
2023-05-09T08:23:58.708Z,71.99
2023-05-09T08:26:01.463Z,72.05
2023-05-09T08:28:03.625Z,71.83
2023-05-09T08:30:06.764Z,71.16
2023-05-09T08:32:08.995Z,71.24
2023-05-09T08:34:11.085Z,70.79
2023-05-09T08:36:15.947Z,71.20
2023-05-09T08:38:18.277Z,71.06
2023-05-09T08:40:20.857Z,71.06
2023-05-09T08:42:26.064Z,71.03
2023-05-09T08:44:31.483Z,71.49
2023-05-09T08:46:39.280Z,71.90
2023-05-09T08:48:43.600Z,71.58
2023-05-09T08:50:45.852Z,70.91
2023-05-09T08:52:48.270Z,70.88
2023-05-09T08:54:51.644Z,70.33
2023-05-09T08:56:56.500Z,70.69
2023-05-09T08:58:59.298Z,69.78
2023-05-09T09:01:06.930Z,69.02
2023-05-09T09:03:09.037Z,69.91
2023-05-09T09:05:34.217Z,69.53
2023-05-09T09:07:39.993Z,68.86
2023-05-09T09:09:46.383Z,69.00
2023-05-09T09:11:48.986Z,68.65
2023-05-09T09:13:54.128Z,69.49
2023-05-09T09:15:59.300Z,70.50
2023-05-09T09:18:10.251Z,70.60
2023-05-09T09:20:14.976Z,69.72
2023-05-09T09:22:20.058Z,68.54
2023-05-09T09:24:23.757Z,68.04
2023-05-09T09:26:29.421Z,67.92
2023-05-09T09:28:31.387Z,66.86
2023-05-09T09:30:33.652Z,67.31
2023-05-09T09:32:36.508Z,66.47
2023-05-09T09:34:38.838Z,66.53
2023-05-09T09:36:40.833Z,66.28
2023-05-09T09:38:44.212Z,65.78
2023-05-09T09:40:52.927Z,65.66
2023-05-09T09:42:54.753Z,64.91
2023-05-09T09:44:57.994Z,64.99
2023-05-09T09:47:00.140Z,64.56
2023-05-09T09:49:01.989Z,63.56
2023-05-09T09:51:11.965Z,63.11
2023-05-09T09:53:13.857Z,63.48
2023-05-09T09:55:16.193Z,61.07
2023-05-09T09:57:38.389Z,60.82
2023-05-09T09:59:40.363Z,61.15
2023-05-09T10:01:54.540Z,61.50
2023-05-09T10:03:56.505Z,61.63
2023-05-09T10:06:04.191Z,61.52
2023-05-09T10:08:07.838Z,60.71
2023-05-09T10:10:10.237Z,60.05
2023-05-09T10:12:12.329Z,61.29
2023-05-09T10:14:14.408Z,59.90
2023-05-09T10:16:17.053Z,59.06
2023-05-09T10:18:21.828Z,58.51
2023-05-09T10:20:25.390Z,58.61
2023-05-09T10:22:30.186Z,58.69
2023-05-09T10:24:43.386Z,58.53
2023-05-09T10:26:49.852Z,56.85
2023-05-09T10:28:56.116Z,57.54
2023-05-09T10:31:08.600Z,57.39
2023-05-09T10:33:13.545Z,57.45
2023-05-09T10:35:17.814Z,56.66
2023-05-09T10:37:22.474Z,57.22
2023-05-09T10:39:25.249Z,55.53
2023-05-09T10:41:32.323Z,55.72
2023-05-09T10:43:36.605Z,53.99
2023-05-09T10:45:42.906Z,53.43
2023-05-09T10:47:46.572Z,53.72
2023-05-09T10:49:50.196Z,53.90
2023-05-09T10:51:52.905Z,54.64
2023-05-09T10:53:56.363Z,53.83
2023-05-09T10:56:00.475Z,54.46
2023-05-09T10:58:20.172Z,54.83
2023-05-09T11:00:25.588Z,55.32
2023-05-09T11:02:31.155Z,55.28
2023-05-09T11:04:33.219Z,54.52
2023-05-09T11:06:44.092Z,53.66
2023-05-09T11:08:46.871Z,53.81
2023-05-09T11:10:49.320Z,53.50
2023-05-09T11:13:01.098Z,53.77
2023-05-09T11:15:08.053Z,54.23
2023-05-09T11:17:13.109Z,54.17
2023-05-09T11:19:37.136Z,54.21
2023-05-09T11:22:01.489Z,53.85
2023-05-09T11:24:16.904Z,53.48
2023-05-09T11:26:23.709Z,53.96
2023-05-09T11:28:28.968Z,53.60
2023-05-09T11:30:41.826Z,52.76
2023-05-09T11:32:45.583Z,52.81
2023-05-09T11:34:47.707Z,52.73
2023-05-09T11:36:49.548Z,53.33
2023-05-09T11:39:02.713Z,53.31
2023-05-09T11:41:05.305Z,53.85
2023-05-09T11:43:07.886Z,53.59
2023-05-09T11:45:11.180Z,53.78
2023-05-09T11:47:13.264Z,54.77
2023-05-09T11:49:19.749Z,53.69
2023-05-09T11:51:22.151Z,54.43
2023-05-09T11:53:24.493Z,53.63
2023-05-09T11:55:31.480Z,53.93
2023-05-09T11:57:39.003Z,54.14
2023-05-09T11:59:41.571Z,54.37
2023-05-09T12:01:43.380Z,54.49
2023-05-09T12:03:45.552Z,54.39
2023-05-09T12:05:49.275Z,54.02
2023-05-09T12:07:52.678Z,54.17
2023-05-09T12:09:54.803Z,54.69
2023-05-09T12:11:56.684Z,53.30
2023-05-09T12:13:58.582Z,52.31
2023-05-09T12:16:01.968Z,52.22
2023-05-09T12:18:06.170Z,51.71
2023-05-09T12:20:09.153Z,52.46
2023-05-09T12:22:11.386Z,51.45
2023-05-09T12:24:13.364Z,51.83
2023-05-09T12:26:16.013Z,50.35
2023-05-09T12:28:18.483Z,49.86
2023-05-09T12:30:21.133Z,50.74
2023-05-09T12:32:23.594Z,50.39
2023-05-09T12:34:25.641Z,48.27
2023-05-09T12:36:27.542Z,49.04
2023-05-09T12:38:29.384Z,48.24
2023-05-09T12:40:31.265Z,47.73
2023-05-09T12:42:34.342Z,47.90
2023-05-09T12:44:36.843Z,47.52
2023-05-09T12:46:38.921Z,47.59
2023-05-09T12:48:40.890Z,46.38
2023-05-09T12:50:47.666Z,46.29
2023-05-09T12:53:02.751Z,47.22
2023-05-09T12:55:09.938Z,46.65
2023-05-09T12:57:23.073Z,45.88
2023-05-09T12:59:31.361Z,45.04
2023-05-09T13:01:39.722Z,45.13
2023-05-09T13:03:42.792Z,44.89
2023-05-09T13:05:54.645Z,45.12
2023-05-09T13:07:57.641Z,44.65
2023-05-09T13:10:01.228Z,44.56
2023-05-09T13:12:04.462Z,44.55
2023-05-09T13:14:06.368Z,44.68
2023-05-09T13:16:10.507Z,44.95
2023-05-09T13:18:13.836Z,44.83
2023-05-09T13:20:17.327Z,45.30
2023-05-09T13:22:19.847Z,43.51
2023-05-09T13:24:21.722Z,43.57
2023-05-09T13:26:23.680Z,43.50
2023-05-09T13:28:25.765Z,43.34
2023-05-09T13:30:27.802Z,43.09
2023-05-09T13:32:29.993Z,42.71
2023-05-09T13:34:31.986Z,42.45
2023-05-09T13:36:34.134Z,43.29
2023-05-09T13:38:39.180Z,43.21
2023-05-09T13:40:41.133Z,43.72
2023-05-09T13:42:44.079Z,44.75
2023-05-09T13:44:46.228Z,44.44
2023-05-09T13:46:48.283Z,45.30
2023-05-09T13:48:50.336Z,46.02
2023-05-09T13:50:52.382Z,45.88
2023-05-09T13:52:54.702Z,46.50
2023-05-09T13:54:59.941Z,47.37
2023-05-09T13:57:04.342Z,47.34
2023-05-09T13:59:07.044Z,48.02
2023-05-09T14:01:09.106Z,48.41
2023-05-09T14:03:11.035Z,48.46
2023-05-09T14:05:13.048Z,48.93
2023-05-09T14:07:16.871Z,49.74
2023-05-09T14:09:19.469Z,49.94
2023-05-09T14:11:21.567Z,50.52
2023-05-09T14:13:23.497Z,50.46
2023-05-09T14:15:25.491Z,50.66
2023-05-09T14:17:31.522Z,50.78
2023-05-09T14:19:34.464Z,51.30
2023-05-09T14:21:39.984Z,51.09
2023-05-09T14:23:42.428Z,51.63
2023-05-09T14:25:45.015Z,51.81
2023-05-09T14:27:49.199Z,52.50
2023-05-09T14:29:51.393Z,52.45
2023-05-09T14:31:53.908Z,52.08
2023-05-09T14:33:56.379Z,51.89
2023-05-09T14:35:58.356Z,52.13
2023-05-09T14:38:01.421Z,51.70
2023-05-09T14:40:05.821Z,51.09
2023-05-09T14:42:10.515Z,51.27
2023-05-09T14:44:12.433Z,50.94
2023-05-09T14:46:14.366Z,50.64
2023-05-09T14:48:17.117Z,49.03
2023-05-09T14:50:21.967Z,49.09
2023-05-09T14:52:23.917Z,48.25
2023-05-09T14:54:26.033Z,46.22
2023-05-09T14:56:29.243Z,45.91
2023-05-09T15:00:35.121Z,44.44
2023-05-09T15:02:37.571Z,42.89
2023-05-09T15:04:41.538Z,43.37
2023-05-09T15:06:43.553Z,42.76
2023-05-09T15:08:45.504Z,43.31
2023-05-09T15:10:48.489Z,43.72
2023-05-09T15:12:50.330Z,44.71
2023-05-09T15:14:54.243Z,44.53
2023-05-09T15:16:59.231Z,44.43
2023-05-09T15:19:01.699Z,44.83
2023-05-09T15:21:05.131Z,44.99
2023-05-09T15:23:08.038Z,44.34
2023-05-09T15:25:10.354Z,44.02
2023-05-09T15:27:12.167Z,44.89
2023-05-09T15:29:14.250Z,44.65
2023-05-09T15:31:16.352Z,44.29
2023-05-09T15:33:18.817Z,45.31
2023-05-09T15:35:21.487Z,45.39
2023-05-09T15:37:26.167Z,45.66
2023-05-09T15:39:28.087Z,46.04
2023-05-09T15:41:35.462Z,47.23
2023-05-09T15:43:37.386Z,48.23
2023-05-09T15:45:45.450Z,48.68
2023-05-09T15:47:47.626Z,48.31
2023-05-09T15:49:49.784Z,48.49
2023-05-09T15:51:51.829Z,48.79
2023-05-09T15:53:53.768Z,48.89
2023-05-09T15:55:56.887Z,49.47
2023-05-09T15:57:59.380Z,50.56
2023-05-09T16:00:01.413Z,51.57
2023-05-09T16:02:06.821Z,52.10
2023-05-09T16:04:09.717Z,52.18
2023-05-09T16:06:13.066Z,52.85
2023-05-09T16:08:15.143Z,52.49
2023-05-09T16:10:19.380Z,53.54
2023-05-09T16:12:21.314Z,53.92
2023-05-09T16:14:23.589Z,54.48
2023-05-09T16:16:26.305Z,57.34
2023-05-09T16:18:29.143Z,58.57
2023-05-09T16:20:31.109Z,58.88
2023-05-09T16:22:33.092Z,60.21
2023-05-09T16:24:35.457Z,60.51
2023-05-09T16:26:37.541Z,61.44
2023-05-09T16:28:40.427Z,62.21
2023-05-09T16:30:43.296Z,62.00
2023-05-09T16:32:45.581Z,61.91
2023-05-09T16:34:47.752Z,61.33
2023-05-09T16:36:49.933Z,62.11
2023-05-09T16:38:51.763Z,62.10
2023-05-09T16:40:54.529Z,62.81
2023-05-09T16:42:56.811Z,62.25
2023-05-09T16:44:58.743Z,62.88
2023-05-09T16:47:01.246Z,62.98
2023-05-09T16:49:03.515Z,62.16
2023-05-09T16:51:05.778Z,62.51
2023-05-09T16:53:08.385Z,63.08
2023-05-09T16:55:13.681Z,63.27
2023-05-09T16:57:17.276Z,63.23
2023-05-09T16:59:20.237Z,62.55
2023-05-09T17:01:22.270Z,61.55
2023-05-09T17:03:24.338Z,61.61
2023-05-09T17:05:26.748Z,61.93
2023-05-09T17:07:31.157Z,61.79
2023-05-09T17:09:38.575Z,60.65
2023-05-09T17:11:40.574Z,59.93
2023-05-09T17:13:44.338Z,59.49
2023-05-09T17:15:46.535Z,58.85
2023-05-09T17:17:48.956Z,59.01
2023-05-09T17:19:51.362Z,59.60
2023-05-09T17:21:56.276Z,59.95
2023-05-09T17:23:58.601Z,60.69
2023-05-09T17:26:00.776Z,60.71
2023-05-09T17:28:03.340Z,60.95
2023-05-09T17:30:06.486Z,61.42
2023-05-09T17:32:09.037Z,61.84
2023-05-09T17:34:11.948Z,62.52
2023-05-09T17:36:13.854Z,62.39
2023-05-09T17:38:18.885Z,61.20
2023-05-09T17:40:21.690Z,61.02
2023-05-09T17:42:23.932Z,58.94
2023-05-09T17:44:26.094Z,57.76
2023-05-09T17:46:28.296Z,56.95
2023-05-09T17:48:30.914Z,56.59
2023-05-09T17:50:33.725Z,56.49
2023-05-09T17:52:36.162Z,56.25
2023-05-09T17:54:38.007Z,55.99
2023-05-09T17:56:40.294Z,55.18
2023-05-09T17:58:45.617Z,55.35
2023-05-09T18:00:48.268Z,54.34
2023-05-09T18:02:51.314Z,55.28
2023-05-09T18:04:54.131Z,55.55
2023-05-09T18:06:56.112Z,55.65
2023-05-09T18:08:58.879Z,56.17
2023-05-09T18:11:00.878Z,55.90
2023-05-09T18:13:03.709Z,56.36
2023-05-09T18:15:07.208Z,56.32
2023-05-09T18:17:09.178Z,56.47
2023-05-09T18:19:11.727Z,56.63
2023-05-09T18:21:14.154Z,56.81
2023-05-09T18:23:16.313Z,56.86
2023-05-09T18:25:18.589Z,56.71
2023-05-09T18:27:20.439Z,57.32
2023-05-09T18:29:23.411Z,57.60
2023-05-09T18:31:25.238Z,57.97
2023-05-09T18:33:30.758Z,59.46
2023-05-09T18:35:32.734Z,59.84
2023-05-09T18:37:39.337Z,61.18
2023-05-09T18:39:41.181Z,61.77
2023-05-09T18:41:47.359Z,61.94
2023-05-09T18:43:49.252Z,63.50
2023-05-09T18:45:52.026Z,63.79
2023-05-09T18:47:53.949Z,64.80
2023-05-09T18:49:55.713Z,65.34
2023-05-09T18:51:57.585Z,66.84
2023-05-09T18:54:02.546Z,67.25
2023-05-09T18:56:05.630Z,68.38
2023-05-09T18:58:07.412Z,68.89
2023-05-09T19:00:13.515Z,69.46
2023-05-09T19:02:15.373Z,70.01
2023-05-09T19:04:20.423Z,70.55
2023-05-09T19:06:22.374Z,70.74
2023-05-09T19:08:26.210Z,70.29
2023-05-09T19:10:27.974Z,71.58
2023-05-09T19:12:30.059Z,72.08
2023-05-09T19:14:32.348Z,72.85
2023-05-09T19:16:34.656Z,72.99
2023-05-09T19:18:36.544Z,74.20
2023-05-09T19:20:38.363Z,74.90
2023-05-09T19:22:43.949Z,74.57
2023-05-09T19:24:45.966Z,74.85
2023-05-09T19:26:47.782Z,74.86
2023-05-09T19:28:49.621Z,74.07
2023-05-09T19:30:52.270Z,74.11
2023-05-09T19:32:54.221Z,73.98
2023-05-09T19:34:59.192Z,73.63
2023-05-09T19:37:01.227Z,73.24
2023-05-09T19:39:09.028Z,73.44
2023-05-09T19:41:11.504Z,73.84
2023-05-09T19:43:14.313Z,72.84
2023-05-09T19:45:16.554Z,73.40
2023-05-09T19:47:20.645Z,73.79
2023-05-09T19:49:23.857Z,74.00
2023-05-09T19:51:26.284Z,74.41
2023-05-09T19:53:28.374Z,74.17
2023-05-09T19:55:31.566Z,73.96
2023-05-09T19:57:38.928Z,73.06
2023-05-09T19:59:40.758Z,73.20
2023-05-09T20:01:42.950Z,74.15
2023-05-09T20:03:46.984Z,74.02
2023-05-09T20:05:49.230Z,73.27
2023-05-09T20:07:51.226Z,72.73
2023-05-09T20:09:53.641Z,72.80
2023-05-09T20:11:58.219Z,72.80
2023-05-09T20:14:00.865Z,72.21
2023-05-09T20:16:04.348Z,71.13
2023-05-09T20:18:10.589Z,71.15
2023-05-09T20:20:14.291Z,69.90
2023-05-09T20:22:17.288Z,70.00
2023-05-09T20:24:21.150Z,70.73
2023-05-09T20:26:25.301Z,71.17
2023-05-09T20:28:28.670Z,71.24
2023-05-09T20:30:31.433Z,70.91
2023-05-09T20:32:35.663Z,70.15
2023-05-09T20:34:37.486Z,70.58
2023-05-09T20:36:39.421Z,71.56
2023-05-09T20:38:41.195Z,71.02
2023-05-09T20:40:44.220Z,70.82
2023-05-09T20:42:49.084Z,71.42
2023-05-09T20:44:51.646Z,71.78
2023-05-09T20:46:55.851Z,71.60
2023-05-09T20:48:57.682Z,71.48
2023-05-09T20:50:59.445Z,71.09
2023-05-09T20:53:01.406Z,71.25
2023-05-09T20:55:03.530Z,71.57
2023-05-09T20:57:05.342Z,71.52
2023-05-09T20:59:07.155Z,70.73
2023-05-09T21:01:09.166Z,71.19
2023-05-09T21:03:11.203Z,71.30
2023-05-09T21:05:13.126Z,71.56
2023-05-09T21:07:19.235Z,70.98
2023-05-09T21:09:21.155Z,71.78
2023-05-09T21:11:23.371Z,71.72
2023-05-09T21:13:25.461Z,71.83
2023-05-09T21:15:27.538Z,71.40
2023-05-09T21:17:34.507Z,70.95
2023-05-09T21:19:36.467Z,71.02
2023-05-09T21:21:41.635Z,70.99
2023-05-09T21:23:43.450Z,70.78
2023-05-09T21:25:45.297Z,70.79
2023-05-09T21:27:47.083Z,70.79
2023-05-09T21:29:49.522Z,70.55
2023-05-09T21:31:51.346Z,69.01
2023-05-09T21:33:53.142Z,69.44
2023-05-09T21:35:54.937Z,70.03
2023-05-09T21:37:56.762Z,70.28
2023-05-09T21:39:58.465Z,70.86
2023-05-09T21:42:00.264Z,71.03
2023-05-09T21:44:02.207Z,71.42
2023-05-09T21:46:05.666Z,71.42
2023-05-09T21:48:07.617Z,71.42
2023-05-09T21:50:09.987Z,71.24
2023-05-09T21:52:11.736Z,71.49
2023-05-09T21:54:13.483Z,71.27
2023-05-09T21:56:15.332Z,71.29
2023-05-09T21:58:17.101Z,71.25
2023-05-09T22:00:19.924Z,71.16
2023-05-09T22:02:21.727Z,70.88
2023-05-09T22:04:23.465Z,70.99
2023-05-09T22:06:25.162Z,71.67
2023-05-09T22:08:26.938Z,71.11
2023-05-09T22:10:28.936Z,70.98
2023-05-09T22:12:30.732Z,71.06
2023-05-09T22:14:37.136Z,71.51
2023-05-09T22:16:44.070Z,71.77
2023-05-09T22:18:45.925Z,71.52
2023-05-09T22:20:47.809Z,71.33
2023-05-09T22:22:49.757Z,71.61
2023-05-09T22:24:51.574Z,71.64
2023-05-09T22:26:53.326Z,71.56
2023-05-09T22:28:55.068Z,70.83
2023-05-09T22:30:57.100Z,70.48
2023-05-09T22:33:00.265Z,70.79
2023-05-09T22:35:02.410Z,71.41
2023-05-09T22:37:05.174Z,71.05
2023-05-09T22:39:06.911Z,71.48
2023-05-09T22:41:09.220Z,71.49
2023-05-09T22:43:11.752Z,71.96
2023-05-09T22:45:13.989Z,72.13
2023-05-09T22:47:16.256Z,72.76
2023-05-09T22:49:17.983Z,72.25
2023-05-09T22:51:19.759Z,71.78
2023-05-09T22:53:21.520Z,72.60
2023-05-09T22:55:23.421Z,72.33
2023-05-09T22:57:25.185Z,72.64
2023-05-09T22:59:27.196Z,72.87
2023-05-09T23:01:33.440Z,72.52
2023-05-09T23:03:35.224Z,72.99
2023-05-09T23:05:39.695Z,72.37
2023-05-09T23:07:41.648Z,72.74
2023-05-09T23:09:43.473Z,72.80
2023-05-09T23:11:45.269Z,72.52
2023-05-09T23:13:47.037Z,72.72
2023-05-09T23:15:48.747Z,72.60
2023-05-09T23:17:50.467Z,73.12
2023-05-09T23:19:52.353Z,72.76
2023-05-09T23:21:54.353Z,72.87
2023-05-09T23:23:56.214Z,73.21
2023-05-09T23:25:57.887Z,73.18
2023-05-09T23:27:59.613Z,73.30
2023-05-09T23:30:01.365Z,73.36
2023-05-09T23:32:03.196Z,73.91
2023-05-09T23:34:04.942Z,73.78
2023-05-09T23:36:07.309Z,74.19
2023-05-09T23:38:09.331Z,73.84
2023-05-09T23:40:12.313Z,74.09
2023-05-09T23:42:14.207Z,74.31
2023-05-09T23:44:16.310Z,75.16
2023-05-09T23:46:18.111Z,74.46
2023-05-09T23:48:19.986Z,74.49
2023-05-09T23:50:21.935Z,75.23
2023-05-09T23:52:23.848Z,74.64
2023-05-09T23:54:27.101Z,74.56
2023-05-09T23:56:29.160Z,74.51
2023-05-09T23:58:33.691Z,74.31
